createdAt,value
2023-03-21T00:00:39.009Z,65.40
2023-03-21T00:01:41.736Z,65.69
2023-03-21T00:02:47.488Z,66.16
2023-03-21T00:03:50.710Z,66.18
2023-03-21T00:04:55.071Z,65.98
2023-03-21T00:05:59.405Z,65.87
2023-03-21T00:07:02.013Z,65.82
2023-03-21T00:08:04.651Z,65.71
2023-03-21T00:09:07.368Z,65.55
2023-03-21T00:10:16.702Z,65.46
2023-03-21T00:11:23.084Z,65.66
2023-03-21T00:12:25.787Z,65.58
2023-03-21T00:13:33.603Z,65.39
2023-03-21T00:14:38.999Z,65.24
2023-03-21T00:17:16.990Z,65.04
2023-03-21T00:18:19.896Z,65.14
2023-03-21T00:19:22.807Z,65.16
2023-03-21T00:20:25.487Z,65.28
2023-03-21T00:21:46.625Z,65.37
2023-03-21T00:22:55.950Z,65.58
2023-03-21T00:23:58.712Z,65.51
2023-03-21T00:25:01.452Z,65.45
2023-03-21T00:26:04.087Z,65.42
2023-03-21T00:27:34.254Z,65.35
2023-03-21T00:28:29.644Z,65.33
2023-03-21T00:29:32.271Z,65.30
2023-03-21T00:30:34.897Z,65.20
2023-03-21T00:31:37.584Z,65.20
2023-03-21T00:32:55.180Z,65.14
2023-03-21T00:33:58.521Z,65.09
2023-03-21T00:35:23.377Z,65.06
2023-03-21T00:36:26.945Z,65.16
2023-03-21T00:37:30.103Z,65.25
2023-03-21T00:38:33.064Z,65.24
2023-03-21T00:39:36.820Z,65.28
2023-03-21T00:40:47.119Z,65.25
2023-03-21T00:41:52.453Z,65.32
2023-03-21T00:42:55.101Z,65.31
2023-03-21T00:43:58.553Z,65.38
2023-03-21T00:45:01.206Z,65.53
2023-03-21T00:46:04.147Z,65.71
2023-03-21T00:47:08.328Z,65.73
2023-03-21T00:48:11.808Z,65.77
2023-03-21T00:49:14.474Z,65.94
2023-03-21T00:50:17.426Z,65.93
2023-03-21T00:51:27.327Z,66.15
2023-03-21T00:52:40.338Z,66.14
2023-03-21T00:53:43.902Z,66.24
2023-03-21T00:54:47.047Z,66.37
2023-03-21T00:55:49.917Z,66.38
2023-03-21T00:56:52.785Z,66.40
2023-03-21T00:58:01.625Z,66.34
2023-03-21T00:59:05.269Z,66.40
2023-03-21T01:00:13.569Z,66.55
2023-03-21T01:01:16.717Z,66.56
2023-03-21T01:02:23.933Z,66.51
2023-03-21T01:03:27.739Z,66.67
2023-03-21T01:04:30.529Z,66.63
2023-03-21T01:05:54.601Z,66.77
2023-03-21T01:06:57.257Z,66.88
2023-03-21T01:08:01.838Z,66.81
2023-03-21T01:09:05.526Z,66.88
2023-03-21T01:10:08.624Z,66.78
2023-03-21T01:11:15.004Z,66.97
2023-03-21T01:12:17.891Z,66.87
2023-03-21T01:13:22.760Z,66.92
2023-03-21T01:14:25.747Z,67.03
2023-03-21T01:15:28.384Z,66.94
2023-03-21T01:16:31.628Z,66.87
2023-03-21T01:17:34.440Z,66.86
2023-03-21T01:18:38.865Z,67.07
2023-03-21T01:19:51.506Z,67.20
2023-03-21T01:20:56.602Z,67.20
2023-03-21T01:21:59.274Z,67.16
2023-03-21T01:23:02.187Z,67.17
2023-03-21T01:24:05.068Z,67.20
2023-03-21T01:25:21.491Z,67.10
2023-03-21T01:26:25.153Z,67.03
2023-03-21T01:27:27.847Z,66.88
2023-03-21T01:28:31.398Z,66.79
2023-03-21T01:29:34.238Z,66.73
2023-03-21T01:30:42.000Z,66.61
2023-03-21T01:31:44.984Z,66.59
2023-03-21T01:32:48.129Z,66.59
2023-03-21T01:33:50.842Z,66.56
2023-03-21T01:34:53.519Z,66.58
2023-03-21T01:36:10.012Z,66.51
2023-03-21T01:37:15.739Z,66.61
2023-03-21T01:38:18.749Z,66.64
2023-03-21T01:39:21.720Z,66.66
2023-03-21T01:40:28.244Z,66.63
2023-03-21T01:41:43.311Z,66.58
2023-03-21T01:42:47.041Z,66.55
2023-03-21T01:43:49.804Z,66.43
2023-03-21T01:44:56.669Z,66.36
2023-03-21T01:46:22.405Z,66.33
2023-03-21T01:47:25.879Z,66.28
2023-03-21T01:48:30.228Z,66.29
2023-03-21T01:49:39.744Z,66.30
2023-03-21T01:50:43.927Z,66.29
2023-03-21T01:51:55.090Z,66.24
2023-03-21T01:52:59.340Z,66.10
2023-03-21T01:54:02.967Z,66.08
2023-03-21T01:55:12.832Z,66.08
2023-03-21T01:56:34.820Z,66.09
2023-03-21T01:57:52.164Z,66.21
2023-03-21T01:59:23.039Z,66.22
2023-03-21T02:00:30.557Z,66.27
2023-03-21T02:01:35.790Z,66.31
2023-03-21T02:02:39.032Z,66.37
2023-03-21T02:03:52.351Z,66.83
2023-03-21T02:04:59.176Z,66.88
2023-03-21T02:06:06.004Z,66.91
2023-03-21T02:07:12.616Z,66.91
2023-03-21T02:08:15.306Z,66.95
2023-03-21T02:09:23.385Z,66.93
2023-03-21T02:10:26.671Z,66.96
2023-03-21T02:11:30.956Z,66.87
2023-03-21T02:12:33.710Z,66.84
2023-03-21T02:13:37.460Z,66.71
2023-03-21T02:14:40.738Z,66.71
2023-03-21T02:15:51.017Z,66.70
2023-03-21T02:16:58.546Z,66.78
2023-03-21T02:18:18.043Z,66.74
2023-03-21T02:19:37.212Z,66.86
2023-03-21T02:21:09.198Z,66.92
2023-03-21T02:22:25.809Z,67.01
2023-03-21T02:23:31.242Z,67.04
2023-03-21T02:24:41.085Z,67.08
2023-03-21T02:26:11.295Z,67.21
2023-03-21T02:27:17.067Z,67.15
2023-03-21T02:28:22.706Z,67.04
2023-03-21T02:29:55.673Z,67.11
2023-03-21T02:31:05.551Z,67.19
2023-03-21T02:32:41.534Z,67.22
2023-03-21T02:34:05.628Z,67.22
2023-03-21T02:35:37.149Z,67.27
2023-03-21T02:37:02.278Z,67.35
2023-03-21T02:38:08.308Z,67.30
2023-03-21T02:39:26.843Z,67.45
2023-03-21T02:40:36.258Z,67.53
2023-03-21T02:41:51.062Z,67.47
2023-03-21T02:43:22.207Z,67.39
2023-03-21T02:44:32.331Z,67.37
2023-03-21T02:45:43.778Z,67.35
2023-03-21T02:47:02.928Z,67.39
2023-03-21T02:48:25.575Z,67.48
2023-03-21T02:49:59.386Z,67.53
2023-03-21T02:51:05.858Z,67.48
2023-03-21T02:52:17.103Z,67.58
2023-03-21T02:53:32.942Z,67.61
2023-03-21T02:54:47.637Z,67.69
2023-03-21T02:55:53.953Z,67.73
2023-03-21T02:56:59.243Z,67.69
2023-03-21T02:58:12.415Z,67.64
2023-03-21T02:59:18.791Z,67.57
2023-03-21T03:00:24.189Z,67.69
2023-03-21T03:01:27.002Z,67.75
2023-03-21T03:02:30.478Z,67.83
2023-03-21T03:03:35.009Z,68.12
2023-03-21T03:04:37.839Z,68.54
2023-03-21T03:05:47.536Z,68.83
2023-03-21T03:07:16.728Z,68.79
2023-03-21T03:08:59.712Z,68.70
2023-03-21T03:10:28.261Z,68.80
2023-03-21T03:11:37.670Z,68.75
2023-03-21T03:13:05.059Z,68.71
2023-03-21T03:15:00.336Z,68.38
2023-03-21T03:16:26.871Z,67.87
2023-03-21T03:17:48.025Z,67.84
2023-03-21T03:18:50.662Z,67.79
2023-03-21T03:19:57.171Z,67.73
2023-03-21T03:21:30.118Z,67.55
2023-03-21T03:22:44.233Z,67.51
2023-03-21T03:24:01.469Z,67.54
2023-03-21T03:25:23.221Z,67.48
2023-03-21T03:26:39.544Z,67.34
2023-03-21T03:27:45.277Z,67.28
2023-03-21T03:28:53.176Z,67.23
2023-03-21T03:29:59.406Z,67.31
2023-03-21T03:31:09.229Z,67.41
2023-03-21T03:32:28.228Z,67.68
2023-03-21T03:33:32.031Z,67.82
2023-03-21T03:34:42.514Z,67.87
2023-03-21T03:35:53.023Z,67.88
2023-03-21T03:37:11.730Z,67.85
2023-03-21T03:38:15.365Z,67.94
2023-03-21T03:39:19.446Z,67.89
2023-03-21T03:40:28.157Z,67.85
2023-03-21T03:41:50.234Z,67.84
2023-03-21T03:42:57.956Z,67.88
2023-03-21T03:44:02.810Z,67.88
2023-03-21T03:45:07.651Z,67.89
2023-03-21T03:46:20.141Z,67.81
2023-03-21T03:47:32.736Z,67.86
2023-03-21T03:48:47.598Z,67.85
2023-03-21T03:50:10.001Z,67.84
2023-03-21T03:51:37.410Z,67.92
2023-03-21T03:52:57.466Z,67.92
2023-03-21T03:54:06.582Z,68.02
2023-03-21T03:55:12.563Z,68.02
2023-03-21T03:56:15.678Z,68.05
2023-03-21T03:57:18.751Z,68.03
2023-03-21T03:58:24.762Z,67.97
2023-03-21T03:59:31.801Z,67.96
2023-03-21T04:00:36.255Z,67.88
2023-03-21T04:01:39.009Z,67.80
2023-03-21T04:02:41.654Z,67.72
2023-03-21T04:03:51.728Z,67.70
2023-03-21T04:04:59.434Z,67.60
2023-03-21T04:06:02.192Z,67.58
2023-03-21T04:07:05.545Z,67.68
2023-03-21T04:08:08.242Z,67.73
2023-03-21T04:09:20.618Z,67.81
2023-03-21T04:10:24.670Z,68.14
2023-03-21T04:11:27.295Z,68.20
2023-03-21T04:12:29.940Z,68.24
2023-03-21T04:13:32.580Z,68.24
2023-03-21T04:14:44.109Z,68.30
2023-03-21T04:15:48.199Z,68.36
2023-03-21T04:16:51.592Z,68.56
2023-03-21T04:17:54.463Z,68.73
2023-03-21T04:18:57.094Z,68.69
2023-03-21T04:20:10.899Z,68.78
2023-03-21T04:21:15.761Z,68.84
2023-03-21T04:22:19.042Z,69.02
2023-03-21T04:23:21.731Z,69.41
2023-03-21T04:24:24.372Z,69.39
2023-03-21T04:25:33.902Z,69.44
2023-03-21T04:26:37.447Z,69.42
2023-03-21T04:27:40.191Z,69.32
2023-03-21T04:28:42.831Z,69.30
2023-03-21T04:29:45.826Z,69.28
2023-03-21T04:31:02.195Z,69.16
2023-03-21T04:32:17.237Z,69.20
2023-03-21T04:33:20.998Z,69.30
2023-03-21T04:34:25.164Z,69.37
2023-03-21T04:35:28.262Z,69.45
2023-03-21T04:36:39.873Z,69.58
2023-03-21T04:37:42.621Z,69.59
2023-03-21T04:38:49.567Z,69.63
2023-03-21T04:39:52.656Z,69.56
2023-03-21T04:40:55.317Z,69.56
2023-03-21T04:41:58.070Z,69.54
2023-03-21T04:43:02.387Z,69.59
2023-03-21T04:44:05.189Z,69.72
2023-03-21T04:45:08.484Z,69.56
2023-03-21T04:46:11.795Z,69.59
2023-03-21T04:47:17.020Z,69.58
2023-03-21T04:48:20.729Z,69.50
2023-03-21T04:49:23.610Z,69.43
2023-03-21T04:50:26.385Z,69.30
2023-03-21T04:51:29.033Z,69.12
2023-03-21T04:52:31.677Z,68.99
2023-03-21T04:53:34.332Z,68.89
2023-03-21T04:54:36.963Z,68.81
2023-03-21T04:55:39.634Z,68.85
2023-03-21T04:56:43.849Z,68.89
2023-03-21T04:57:46.566Z,68.99
2023-03-21T04:58:49.166Z,69.15
2023-03-21T04:59:51.872Z,69.23
2023-03-21T05:00:54.644Z,69.21
2023-03-21T05:02:13.538Z,69.10
2023-03-21T05:03:26.644Z,69.08
2023-03-21T05:04:30.330Z,69.03
2023-03-21T05:05:33.016Z,69.09
2023-03-21T05:06:43.766Z,69.13
2023-03-21T05:07:49.715Z,69.20
2023-03-21T05:10:09.890Z,69.30
2023-03-21T05:11:18.425Z,69.31
2023-03-21T05:12:27.139Z,69.37
2023-03-21T05:15:15.775Z,69.42
2023-03-21T05:17:40.025Z,69.43
2023-03-21T05:18:43.137Z,69.46
2023-03-21T05:19:45.881Z,69.50
2023-03-21T05:20:55.510Z,69.42
2023-03-21T05:21:58.131Z,69.32
2023-03-21T05:23:00.799Z,69.27
2023-03-21T05:24:04.569Z,69.21
2023-03-21T05:25:09.870Z,69.20
2023-03-21T05:26:12.530Z,69.19
2023-03-21T05:27:15.232Z,69.29
2023-03-21T05:28:21.418Z,69.24
2023-03-21T05:29:24.160Z,69.37
2023-03-21T05:30:26.771Z,69.39
2023-03-21T05:31:29.495Z,69.48
2023-03-21T05:32:32.294Z,69.48
2023-03-21T05:33:34.933Z,69.51
2023-03-21T05:34:37.595Z,69.50
2023-03-21T05:35:40.676Z,69.49
2023-03-21T05:36:43.488Z,69.49
2023-03-21T05:37:46.353Z,69.48
2023-03-21T05:38:49.095Z,69.44
2023-03-21T05:39:51.972Z,69.47
2023-03-21T05:40:55.756Z,69.34
2023-03-21T05:41:58.409Z,69.33
2023-03-21T05:43:02.022Z,69.29
2023-03-21T05:44:04.888Z,69.30
2023-03-21T05:45:08.054Z,69.37
2023-03-21T05:46:12.910Z,69.74
2023-03-21T05:47:17.723Z,70.02
2023-03-21T05:48:20.516Z,70.37
2023-03-21T05:49:23.833Z,70.52
2023-03-21T05:50:26.543Z,70.42
2023-03-21T05:51:29.163Z,70.39
2023-03-21T05:52:31.951Z,70.30
2023-03-21T05:53:34.587Z,70.29
2023-03-21T05:54:37.542Z,70.18
2023-03-21T05:55:40.418Z,70.07
2023-03-21T05:56:43.251Z,69.93
2023-03-21T05:57:45.949Z,69.76
2023-03-21T05:58:48.767Z,69.61
2023-03-21T05:59:51.473Z,69.46
2023-03-21T06:00:54.171Z,69.37
2023-03-21T06:01:57.109Z,69.24
2023-03-21T06:02:59.806Z,69.11
2023-03-21T06:04:02.705Z,69.08
2023-03-21T06:05:05.709Z,68.98
2023-03-21T06:06:22.693Z,68.88
2023-03-21T06:08:24.410Z,68.82
2023-03-21T06:09:27.568Z,69.13
2023-03-21T06:10:30.232Z,69.26
2023-03-21T06:11:38.439Z,69.40
2023-03-21T06:12:41.231Z,69.39
2023-03-21T06:13:43.887Z,69.34
2023-03-21T06:15:10.183Z,69.50
2023-03-21T06:16:15.694Z,69.58
2023-03-21T06:17:22.285Z,69.48
2023-03-21T06:18:30.802Z,69.34
2023-03-21T06:19:51.162Z,69.28
2023-03-21T06:20:58.096Z,69.18
2023-03-21T06:22:08.931Z,69.03
2023-03-21T06:23:34.343Z,69.07
2023-03-21T06:24:37.549Z,68.83
2023-03-21T06:26:41.948Z,68.46
2023-03-21T06:27:44.685Z,68.26
2023-03-21T06:28:47.318Z,68.09
2023-03-21T06:29:50.400Z,67.81
2023-03-21T06:30:53.629Z,67.69
2023-03-21T06:31:56.410Z,67.66
2023-03-21T06:32:59.091Z,68.39
2023-03-21T06:34:01.808Z,67.66
2023-03-21T06:35:04.637Z,67.40
2023-03-21T06:36:07.723Z,67.12
2023-03-21T06:37:10.551Z,66.69
2023-03-21T06:38:13.172Z,66.23
2023-03-21T06:39:17.170Z,66.14
2023-03-21T06:40:19.964Z,66.13
2023-03-21T06:41:22.643Z,65.94
2023-03-21T06:42:25.356Z,65.82
2023-03-21T06:43:28.045Z,65.65
2023-03-21T06:44:30.815Z,65.49
2023-03-21T06:45:33.607Z,65.68
2023-03-21T06:46:36.553Z,65.52
2023-03-21T06:47:39.386Z,65.02
2023-03-21T06:48:45.558Z,65.20
2023-03-21T06:49:48.225Z,64.85
2023-03-21T06:50:51.780Z,64.74
2023-03-21T06:51:54.683Z,64.53
2023-03-21T06:52:58.770Z,64.43
2023-03-21T06:54:01.598Z,64.43
2023-03-21T06:55:04.579Z,64.39
2023-03-21T06:56:07.543Z,63.77
2023-03-21T06:57:10.222Z,63.54
2023-03-21T06:58:13.381Z,63.75
2023-03-21T06:59:16.081Z,63.78
2023-03-21T07:00:19.298Z,63.75
2023-03-21T07:01:22.418Z,63.45
2023-03-21T07:02:27.673Z,63.24
2023-03-21T07:03:30.633Z,62.57
2023-03-21T07:04:33.322Z,62.19
2023-03-21T07:05:40.490Z,62.11
2023-03-21T07:06:43.556Z,61.65
2023-03-21T07:07:46.268Z,61.81
2023-03-21T07:08:49.186Z,61.75
2023-03-21T07:09:51.979Z,61.30
2023-03-21T07:10:58.418Z,61.45
2023-03-21T07:12:01.199Z,61.14
2023-03-21T07:13:03.974Z,61.38
2023-03-21T07:14:07.722Z,60.98
2023-03-21T07:15:12.826Z,60.93
2023-03-21T07:16:17.227Z,60.52
2023-03-21T07:17:19.908Z,60.61
2023-03-21T07:18:23.133Z,60.65
2023-03-21T07:19:25.830Z,60.35
2023-03-21T07:20:28.557Z,60.00
2023-03-21T07:21:31.987Z,59.48
2023-03-21T07:22:35.131Z,59.42
2023-03-21T07:23:39.401Z,59.48
2023-03-21T07:24:42.107Z,59.47
2023-03-21T07:25:44.798Z,59.48
2023-03-21T07:26:47.706Z,59.23
2023-03-21T07:27:50.608Z,59.33
2023-03-21T07:28:53.286Z,58.78
2023-03-21T07:29:55.888Z,58.49
2023-03-21T07:31:02.137Z,58.20
2023-03-21T07:32:04.971Z,58.50
2023-03-21T07:33:08.292Z,57.93
2023-03-21T07:34:10.898Z,57.58
2023-03-21T07:35:15.711Z,57.71
2023-03-21T07:36:18.696Z,57.69
2023-03-21T07:37:21.489Z,57.77
2023-03-21T07:38:24.522Z,58.05
2023-03-21T07:39:28.532Z,57.35
2023-03-21T07:40:31.880Z,57.65
2023-03-21T07:41:34.703Z,57.49
2023-03-21T07:42:41.713Z,57.02
2023-03-21T07:43:45.034Z,57.03
2023-03-21T07:44:47.723Z,55.97
2023-03-21T07:45:50.457Z,56.04
2023-03-21T07:46:53.123Z,55.97
2023-03-21T07:47:55.878Z,56.08
2023-03-21T07:48:58.618Z,56.20
2023-03-21T07:50:01.852Z,55.61
2023-03-21T07:51:04.713Z,55.60
2023-03-21T07:52:09.002Z,55.52
2023-03-21T07:53:11.663Z,55.84
2023-03-21T07:54:14.375Z,55.21
2023-03-21T07:55:18.412Z,55.03
2023-03-21T07:56:21.094Z,55.52
2023-03-21T07:57:23.800Z,55.03
2023-03-21T07:58:27.570Z,54.20
2023-03-21T07:59:30.226Z,54.52
2023-03-21T08:00:33.166Z,54.11
2023-03-21T08:01:36.227Z,54.25
2023-03-21T08:02:38.943Z,53.89
2023-03-21T08:03:41.670Z,53.67
2023-03-21T08:04:45.210Z,52.73
2023-03-21T08:05:48.144Z,52.48
2023-03-21T08:06:52.187Z,52.07
2023-03-21T08:07:54.813Z,52.52
2023-03-21T08:08:57.485Z,51.80
2023-03-21T08:10:00.179Z,52.10
2023-03-21T08:11:02.910Z,51.71
2023-03-21T08:12:07.079Z,51.18
2023-03-21T08:13:09.763Z,51.41
2023-03-21T08:14:12.416Z,50.98
2023-03-21T08:15:15.557Z,51.39
2023-03-21T08:16:19.203Z,50.95
2023-03-21T08:17:22.121Z,50.49
2023-03-21T08:18:24.835Z,51.03
2023-03-21T08:19:28.220Z,50.34
2023-03-21T08:20:31.015Z,51.21
2023-03-21T08:21:33.706Z,49.87
2023-03-21T08:22:37.673Z,50.11
2023-03-21T08:23:40.416Z,50.69
2023-03-21T08:24:43.240Z,50.66
2023-03-21T08:25:45.886Z,51.15
2023-03-21T08:26:48.579Z,50.17
2023-03-21T08:27:52.463Z,49.96
2023-03-21T08:28:55.158Z,49.56
2023-03-21T08:29:57.902Z,49.84
2023-03-21T08:31:00.837Z,49.65
2023-03-21T08:32:03.639Z,50.14
2023-03-21T08:33:06.311Z,49.64
2023-03-21T08:34:09.224Z,49.93
2023-03-21T08:35:14.313Z,50.08
2023-03-21T08:36:17.147Z,49.22
2023-03-21T08:37:19.877Z,49.15
2023-03-21T08:38:22.606Z,48.87
2023-03-21T08:39:26.072Z,48.48
2023-03-21T08:40:28.709Z,48.93
2023-03-21T08:41:31.374Z,48.23
2023-03-21T08:42:34.185Z,48.30
2023-03-21T08:43:37.076Z,48.13
2023-03-21T08:44:40.845Z,48.06
2023-03-21T08:45:43.537Z,47.96
2023-03-21T08:46:46.402Z,48.17
2023-03-21T08:47:49.272Z,48.49
2023-03-21T08:48:51.947Z,48.42
2023-03-21T08:49:54.818Z,48.04
2023-03-21T08:50:57.838Z,47.70
2023-03-21T08:52:00.471Z,47.66
2023-03-21T08:53:03.177Z,48.18
2023-03-21T08:54:05.901Z,47.79
2023-03-21T08:55:09.200Z,47.90
2023-03-21T08:56:12.658Z,48.45
2023-03-21T08:57:16.098Z,48.34
2023-03-21T08:58:19.353Z,48.48
2023-03-21T08:59:22.143Z,48.66
2023-03-21T09:00:25.100Z,48.55
2023-03-21T09:01:28.119Z,49.18
2023-03-21T09:02:31.400Z,49.28
2023-03-21T09:03:34.305Z,48.46
2023-03-21T09:04:37.005Z,48.27
2023-03-21T09:05:40.097Z,48.10
2023-03-21T09:06:46.629Z,48.30
2023-03-21T09:07:50.769Z,48.30
2023-03-21T09:08:54.547Z,48.86
2023-03-21T09:10:14.864Z,48.51
2023-03-21T09:11:19.825Z,48.35
2023-03-21T09:12:22.458Z,48.65
2023-03-21T09:13:25.630Z,48.89
2023-03-21T09:14:29.050Z,48.16
2023-03-21T09:15:32.876Z,49.21
2023-03-21T09:16:35.794Z,49.14
2023-03-21T09:17:43.231Z,49.22
2023-03-21T09:18:48.233Z,48.90
2023-03-21T09:19:51.905Z,48.68
2023-03-21T09:20:54.569Z,48.22
2023-03-21T09:21:58.635Z,48.55
2023-03-21T09:23:02.707Z,48.84
2023-03-21T09:24:07.871Z,49.00
2023-03-21T09:25:12.570Z,47.90
2023-03-21T09:26:15.633Z,48.35
2023-03-21T09:27:26.453Z,47.95
2023-03-21T09:28:29.260Z,48.60
2023-03-21T09:29:33.516Z,48.27
2023-03-21T09:30:38.192Z,47.26
2023-03-21T09:31:41.327Z,47.47
2023-03-21T09:32:46.689Z,47.48
2023-03-21T09:33:51.026Z,47.06
2023-03-21T09:34:54.216Z,47.29
2023-03-21T09:35:57.987Z,46.75
2023-03-21T09:37:01.149Z,46.75
2023-03-21T09:38:04.909Z,46.94
2023-03-21T09:39:08.238Z,47.28
2023-03-21T09:40:20.702Z,47.59
2023-03-21T09:41:38.694Z,47.84
2023-03-21T09:43:09.136Z,47.32
2023-03-21T09:44:20.697Z,47.23
2023-03-21T09:45:36.356Z,47.04
2023-03-21T09:46:51.749Z,46.64
2023-03-21T09:47:55.180Z,46.86
2023-03-21T09:49:11.944Z,47.50
2023-03-21T09:50:21.102Z,46.83
2023-03-21T09:51:24.821Z,47.16
2023-03-21T09:53:06.910Z,47.14
2023-03-21T09:54:44.127Z,47.24
2023-03-21T09:55:47.412Z,47.97
2023-03-21T09:56:54.699Z,48.73
2023-03-21T09:58:21.621Z,47.88
2023-03-21T09:59:39.134Z,46.80
2023-03-21T10:00:46.783Z,46.50
2023-03-21T10:01:50.456Z,46.72
2023-03-21T10:02:57.466Z,46.06
2023-03-21T10:04:04.440Z,45.72
2023-03-21T10:05:29.269Z,45.86
2023-03-21T10:06:33.261Z,45.73
2023-03-21T10:07:43.559Z,45.05
2023-03-21T10:08:49.087Z,44.64
2023-03-21T10:09:53.541Z,45.16
2023-03-21T10:11:00.132Z,44.41
2023-03-21T10:12:15.847Z,44.71
2023-03-21T10:13:24.855Z,44.25
2023-03-21T10:14:27.486Z,44.83
2023-03-21T10:15:30.250Z,44.60
2023-03-21T10:16:38.941Z,44.21
2023-03-21T10:17:44.693Z,43.78
2023-03-21T10:18:47.948Z,43.73
2023-03-21T10:20:01.889Z,43.77
2023-03-21T10:21:06.589Z,43.19
2023-03-21T10:22:10.371Z,43.03
2023-03-21T10:23:16.712Z,42.96
2023-03-21T10:24:28.356Z,42.90
2023-03-21T10:25:41.672Z,42.25
2023-03-21T10:26:45.536Z,42.02
2023-03-21T10:27:49.335Z,40.50
2023-03-21T10:28:53.654Z,40.15
2023-03-21T10:29:58.613Z,40.48
2023-03-21T10:31:08.362Z,40.71
2023-03-21T10:32:14.169Z,39.32
2023-03-21T10:33:21.636Z,39.29
2023-03-21T10:34:51.769Z,39.70
2023-03-21T10:35:58.301Z,40.42
2023-03-21T10:37:03.539Z,39.90
2023-03-21T10:38:11.933Z,39.79
2023-03-21T10:39:36.736Z,39.97
2023-03-21T10:40:39.376Z,41.03
2023-03-21T10:41:42.398Z,41.00
2023-03-21T10:42:45.478Z,41.21
2023-03-21T10:43:52.254Z,39.96
2023-03-21T10:44:58.433Z,39.63
2023-03-21T10:46:07.988Z,40.14
2023-03-21T10:47:11.240Z,39.66
2023-03-21T10:48:14.711Z,40.60
2023-03-21T10:49:17.663Z,40.60
2023-03-21T10:50:25.985Z,41.26
2023-03-21T10:51:36.812Z,41.54
2023-03-21T10:52:48.309Z,41.67
2023-03-21T10:53:55.098Z,41.29
2023-03-21T10:55:18.008Z,41.12
2023-03-21T10:56:27.113Z,40.98
2023-03-21T10:57:29.823Z,41.71
2023-03-21T10:58:40.068Z,42.79
2023-03-21T10:59:54.854Z,42.37
2023-03-21T11:00:59.878Z,42.59
2023-03-21T11:02:05.613Z,43.17
2023-03-21T11:03:18.372Z,41.55
2023-03-21T11:04:27.509Z,39.43
2023-03-21T11:05:42.561Z,37.44
2023-03-21T11:07:10.713Z,37.57
2023-03-21T11:08:14.927Z,38.14
2023-03-21T11:09:21.429Z,38.69
2023-03-21T11:10:36.952Z,38.62
2023-03-21T11:11:42.770Z,38.90
2023-03-21T11:12:49.367Z,39.21
2023-03-21T11:14:07.907Z,39.33
2023-03-21T11:15:34.076Z,38.73
2023-03-21T11:16:42.757Z,38.71
2023-03-21T11:17:46.531Z,37.55
2023-03-21T11:18:52.356Z,37.19
2023-03-21T11:20:06.592Z,37.14
2023-03-21T11:21:12.941Z,37.24
2023-03-21T11:22:16.486Z,37.92
2023-03-21T11:23:20.912Z,37.62
2023-03-21T11:24:23.879Z,37.23
2023-03-21T11:25:36.739Z,37.73
2023-03-21T11:26:44.530Z,38.25
2023-03-21T11:27:55.983Z,38.32
2023-03-21T11:28:59.311Z,38.76
2023-03-21T11:30:03.916Z,39.34
2023-03-21T11:31:10.297Z,39.28
2023-03-21T11:32:12.972Z,39.13
2023-03-21T11:33:15.851Z,38.64
2023-03-21T11:34:32.848Z,38.39
2023-03-21T11:35:38.462Z,39.16
2023-03-21T11:36:41.887Z,38.51
2023-03-21T11:37:48.110Z,38.18
2023-03-21T11:39:14.749Z,37.56
2023-03-21T11:40:34.907Z,37.75
2023-03-21T11:41:41.888Z,38.01
2023-03-21T11:42:47.767Z,38.00
2023-03-21T11:43:54.163Z,38.38
2023-03-21T11:45:03.185Z,38.29
2023-03-21T11:46:05.893Z,37.68
2023-03-21T11:47:11.659Z,37.96
2023-03-21T11:48:15.856Z,36.69
2023-03-21T11:49:18.780Z,35.62
2023-03-21T11:50:24.048Z,33.93
2023-03-21T11:51:32.391Z,33.72
2023-03-21T11:52:44.540Z,33.65
2023-03-21T11:53:52.334Z,33.98
2023-03-21T11:55:23.857Z,34.28
2023-03-21T11:56:30.572Z,35.59
2023-03-21T11:57:44.997Z,36.21
2023-03-21T11:59:05.516Z,36.52
2023-03-21T12:00:19.211Z,36.85
2023-03-21T12:01:30.776Z,35.90
2023-03-21T12:02:49.372Z,36.39
2023-03-21T12:04:05.208Z,36.72
2023-03-21T12:05:25.187Z,36.41
2023-03-21T12:06:38.901Z,36.39
2023-03-21T12:07:56.530Z,36.66
2023-03-21T12:09:14.294Z,37.59
2023-03-21T12:10:32.886Z,37.88
2023-03-21T12:12:03.032Z,37.58
2023-03-21T12:13:20.424Z,38.29
2023-03-21T12:14:51.964Z,38.72
2023-03-21T12:16:03.511Z,38.88
2023-03-21T12:17:41.541Z,39.30
2023-03-21T12:18:56.328Z,39.98
2023-03-21T12:20:13.071Z,40.33
2023-03-21T12:21:41.968Z,39.79
2023-03-21T12:23:21.442Z,40.50
2023-03-21T12:24:58.177Z,40.51
2023-03-21T12:26:06.931Z,39.95
2023-03-21T12:27:18.554Z,41.32
2023-03-21T12:28:59.116Z,40.28
2023-03-21T12:30:25.808Z,41.18
2023-03-21T12:31:39.546Z,41.12
2023-03-21T12:35:08.843Z,42.50
2023-03-21T12:36:39.445Z,42.50
2023-03-21T12:38:05.347Z,41.43
2023-03-21T12:39:38.309Z,40.69
2023-03-21T12:41:13.097Z,40.64
2023-03-21T12:43:08.142Z,40.49
2023-03-21T12:44:20.738Z,40.33
2023-03-21T12:45:45.816Z,40.66
2023-03-21T12:46:56.648Z,40.63
2023-03-21T12:48:26.960Z,39.69
2023-03-21T12:49:39.786Z,39.70
2023-03-21T12:50:44.013Z,38.75
2023-03-21T12:51:53.763Z,39.05
2023-03-21T12:53:15.683Z,39.55
2023-03-21T12:54:24.616Z,39.30
2023-03-21T12:55:34.548Z,39.66
2023-03-21T12:56:58.087Z,38.63
2023-03-21T12:58:15.575Z,38.27
2023-03-21T12:59:39.369Z,38.80
2023-03-21T13:00:46.177Z,39.28
2023-03-21T13:01:52.794Z,38.64
2023-03-21T13:03:05.166Z,38.70
2023-03-21T13:04:28.090Z,38.86
2023-03-21T13:05:39.071Z,38.40
2023-03-21T13:06:42.967Z,38.63
2023-03-21T13:07:55.014Z,38.24
2023-03-21T13:09:42.662Z,38.56
2023-03-21T13:10:46.783Z,39.01
2023-03-21T13:11:52.126Z,39.20
2023-03-21T13:13:16.602Z,39.72
2023-03-21T13:14:27.696Z,39.91
2023-03-21T13:15:33.404Z,39.52
2023-03-21T13:17:05.290Z,39.98
2023-03-21T13:18:28.734Z,39.38
2023-03-21T13:19:41.676Z,39.64
2023-03-21T13:20:56.049Z,39.07
2023-03-21T13:22:10.012Z,38.30
2023-03-21T13:23:14.569Z,38.27
2023-03-21T13:24:44.869Z,38.13
2023-03-21T13:25:50.441Z,38.79
2023-03-21T13:27:17.645Z,38.69
2023-03-21T13:28:31.485Z,39.64
2023-03-21T13:29:46.413Z,39.62
2023-03-21T13:30:50.404Z,39.95
2023-03-21T13:31:57.362Z,40.31
2023-03-21T13:33:30.588Z,39.10
2023-03-21T13:34:33.257Z,38.94
2023-03-21T13:35:42.370Z,38.78
2023-03-21T13:36:49.516Z,38.44
2023-03-21T13:38:04.788Z,38.77
2023-03-21T13:39:07.986Z,39.56
2023-03-21T13:40:35.818Z,39.34
2023-03-21T13:41:44.977Z,39.72
2023-03-21T13:42:58.081Z,39.15
2023-03-21T13:44:03.432Z,38.94
2023-03-21T13:45:13.232Z,39.30
2023-03-21T13:46:53.939Z,39.82
2023-03-21T13:48:26.302Z,39.72
2023-03-21T13:49:39.523Z,39.16
2023-03-21T13:51:02.633Z,38.67
2023-03-21T13:52:11.343Z,38.84
2023-03-21T13:53:17.079Z,39.07
2023-03-21T13:54:23.556Z,39.48
2023-03-21T13:55:30.778Z,39.54
2023-03-21T13:56:45.560Z,40.38
2023-03-21T13:57:48.738Z,40.42
2023-03-21T13:58:54.604Z,39.83
2023-03-21T14:00:25.162Z,39.89
2023-03-21T14:01:36.820Z,40.63
2023-03-21T14:02:55.048Z,40.13
2023-03-21T14:04:26.241Z,39.86
2023-03-21T14:05:36.827Z,39.70
2023-03-21T14:06:45.602Z,40.27
2023-03-21T14:07:52.819Z,40.16
2023-03-21T14:08:58.803Z,40.33
2023-03-21T14:10:09.650Z,40.18
2023-03-21T14:11:17.800Z,40.43
2023-03-21T14:12:25.979Z,40.32
2023-03-21T14:13:29.829Z,40.42
2023-03-21T14:14:45.225Z,40.16
2023-03-21T14:15:56.310Z,40.77
2023-03-21T14:16:59.388Z,40.70
2023-03-21T14:18:16.057Z,40.61
2023-03-21T14:19:32.838Z,40.34
2023-03-21T14:20:39.821Z,40.57
2023-03-21T14:21:52.630Z,40.33
2023-03-21T14:22:56.079Z,40.30
2023-03-21T14:24:01.906Z,40.14
2023-03-21T14:25:07.985Z,40.30
2023-03-21T14:26:13.069Z,39.90
2023-03-21T14:27:16.113Z,40.19
2023-03-21T14:28:25.920Z,40.39
2023-03-21T14:29:34.527Z,39.48
2023-03-21T14:30:43.396Z,40.06
2023-03-21T14:31:48.563Z,39.53
2023-03-21T14:32:51.836Z,39.39
2023-03-21T14:33:59.446Z,40.27
2023-03-21T14:35:02.706Z,39.76
2023-03-21T14:36:14.696Z,40.58
2023-03-21T14:37:38.351Z,40.66
2023-03-21T14:38:42.322Z,39.40
2023-03-21T14:39:44.972Z,38.92
2023-03-21T14:40:53.397Z,38.48
2023-03-21T14:42:07.618Z,38.90
2023-03-21T14:43:12.839Z,39.72
2023-03-21T14:44:25.681Z,39.65
2023-03-21T14:45:30.452Z,40.31
2023-03-21T14:46:34.831Z,39.66
2023-03-21T14:47:38.932Z,40.31
2023-03-21T14:48:41.694Z,40.46
2023-03-21T14:49:44.956Z,39.64
2023-03-21T14:50:58.399Z,39.41